Time;durP1;ratioP1;P1;durP2;ratioP2;P2;SDS_P1;SDS_P2;PMS_P1;PMS_P2;Temp;Humidity;BMP_temperature;BMP_pressure;BME280_temperature;BME280_humidity;BME280_pressure;Samples;Min_cycle;Max_cycle;Signal;HPM_P1;HPM_P2
2021/01/09 00:02:07;;;;;;;13.33;10.03;;;0.10;98.80;;;;;;5136851;27;20509;-45
2021/01/09 00:04:33;;;;;;;13.07;9.87;;;0.10;98.80;;;;;;5136643;28;20682;-45
2021/01/09 00:06:59;;;;;;;13.53;9.70;;;0.10;98.70;;;;;;5119346;28;20832;-45
2021/01/09 00:09:25;;;;;;;15.30;10.70;;;0.10;98.60;;;;;;5138190;28;20416;-45
2021/01/09 00:11:51;;;;;;;15.47;11.33;;;0.00;98.60;;;;;;5138868;28;20861;-45
2021/01/09 00:14:19;;;;;;;14.37;10.90;;;0.00;98.90;;;;;;5137477;28;20647;-45
2021/01/09 00:16:51;;;;;;;14.43;10.67;;;-0.10;98.90;;;;;;5138140;27;20541;-45
2021/01/09 00:19:17;;;;;;;16.17;11.63;;;0.00;99.00;;;;;;5137779;28;20693;-45
2021/01/09 00:21:43;;;;;;;13.80;10.60;;;0.00;99.00;;;;;;5137249;28;20528;-45
2021/01/09 00:24:10;;;;;;;13.40;10.43;;;0.00;99.40;;;;;;5138173;28;20424;-44
2021/01/09 00:26:36;;;;;;;13.67;10.30;;;0.00;99.10;;;;;;5138170;27;20747;-45
2021/01/09 00:29:03;;;;;;;12.80;10.23;;;0.00;98.90;;;;;;5138334;27;20413;-45
2021/01/09 00:31:29;;;;;;;14.37;10.47;;;-0.10;98.80;;;;;;5138454;27;20428;-45
2021/01/09 00:33:55;;;;;;;17.10;12.67;;;0.00;99.10;;;;;;5137865;28;20436;-45
2021/01/09 00:36:21;;;;;;;12.90;10.83;;;0.10;99.20;;;;;;5138405;27;20546;-45
2021/01/09 00:38:46;;;;;;;14.20;10.70;;;0.10;99.00;;;;;;5138452;28;20183;-45
2021/01/09 00:41:12;;;;;;;16.37;12.27;;;0.10;99.00;;;;;;5138095;28;20194;-45
2021/01/09 00:43:38;;;;;;;14.70;11.00;;;0.10;99.00;;;;;;5138667;28;20659;-45
2021/01/09 00:46:04;;;;;;;14.40;11.03;;;0.10;99.00;;;;;;5138005;28;20194;-45
2021/01/09 00:48:30;;;;;;;17.73;11.37;;;0.10;98.90;;;;;;5138300;27;20197;-45
2021/01/09 00:50:55;;;;;;;17.47;11.73;;;0.10;98.80;;;;;;5138307;27;20187;-45
2021/01/09 00:53:21;;;;;;;14.40;12.20;;;0.10;98.70;;;;;;5139476;27;20485;-45
2021/01/09 00:55:47;;;;;;;15.60;11.80;;;0.00;98.60;;;;;;5141689;27;20679;-45
2021/01/09 00:58:13;;;;;;;14.10;9.60;;;0.00;98.60;;;;;;5141810;27;20222;-45
2021/01/09 01:00:39;;;;;;;15.53;12.17;;;0.00;98.50;;;;;;5141920;27;20229;-45
2021/01/09 01:03:05;;;;;;;13.50;11.17;;;0.00;98.70;;;;;;5141989;27;20214;-46
2021/01/09 01:05:31;;;;;;;13.00;10.80;;;0.00;98.70;;;;;;5141745;27;20576;-45
2021/01/09 01:07:57;;;;;;;14.70;10.80;;;0.00;98.60;;;;;;5141780;27;20405;-45
2021/01/09 01:10:23;;;;;;;16.17;12.17;;;0.00;98.80;;;;;;5141619;27;20497;-45
2021/01/09 01:12:49;;;;;;;14.17;10.97;;;0.00;99.00;;;;;;5141880;27;20552;-46
2021/01/09 01:15:15;;;;;;;13.53;11.10;;;0.10;99.10;;;;;;5141396;27;20318;-45
2021/01/09 01:17:46;;;;;;;14.70;12.60;;;0.20;99.10;;;;;;5141350;27;20477;-45
2021/01/09 01:20:12;;;;;;;18.70;12.80;;;0.20;99.00;;;;;;5141673;27;20435;-45
2021/01/09 01:22:38;;;;;;;20.43;15.17;;;0.30;99.00;;;;;;5141781;27;20415;-46
2021/01/09 01:25:04;;;;;;;20.20;14.97;;;0.30;98.90;;;;;;5141528;27;20421;-45
2021/01/09 01:27:30;;;;;;;19.23;14.43;;;0.40;98.90;;;;;;5141443;27;20287;-45
2021/01/09 01:29:56;;;;;;;21.70;15.57;;;0.40;98.80;;;;;;5140551;27;20473;-45
2021/01/09 01:32:21;;;;;;;29.27;24.40;;;0.50;98.60;;;;;;5140927;27;20182;-45
2021/01/09 01:34:47;;;;;;;26.10;22.37;;;0.50;98.30;;;;;;5141034;27;20197;-45
2021/01/09 01:37:13;;;;;;;23.60;19.53;;;0.60;98.00;;;;;;5141011;27;20226;-45
2021/01/09 01:39:39;;;;;;;22.23;19.83;;;0.60;98.00;;;;;;5140846;27;20186;-45
2021/01/09 01:42:06;;;;;;;16.87;14.67;;;0.60;98.10;;;;;;5141127;27;20175;-45
2021/01/09 01:44:32;;;;;;;17.63;13.97;;;0.60;98.10;;;;;;5140897;27;20187;-46
2021/01/09 01:46:59;;;;;;;15.10;13.07;;;0.60;98.20;;;;;;5141017;27;20440;-45
2021/01/09 01:49:25;;;;;;;17.87;13.03;;;0.70;98.20;;;;;;5140249;27;20798;-46
2021/01/09 01:51:51;;;;;;;14.50;11.87;;;0.70;98.10;;;;;;5139826;27;20436;-45
2021/01/09 01:54:19;;;;;;;13.00;11.20;;;0.70;98.10;;;;;;5140598;27;20421;-46
2021/01/09 01:56:47;;;;;;;15.33;12.67;;;0.70;98.10;;;;;;5140349;27;20476;-45
2021/01/09 01:59:13;;;;;;;14.00;12.30;;;0.70;98.10;;;;;;5138985;27;20405;-46
2021/01/09 02:01:40;;;;;;;15.10;11.50;;;0.80;98.20;;;;;;5138264;27;20544;-45
2021/01/09 02:04:07;;;;;;;15.33;11.60;;;0.80;98.10;;;;;;5138629;27;20417;-45
2021/01/09 02:06:35;;;;;;;16.20;12.20;;;0.80;98.10;;;;;;5140288;27;20530;-46
2021/01/09 02:09:12;;;;;;;16.33;11.27;;;0.80;98.00;;;;;;5139686;27;20834;-45
2021/01/09 02:12:01;;;;;;;18.37;11.70;;;0.80;97.90;;;;;;5139750;27;20702;-45
2021/01/09 02:14:39;;;;;;;19.50;12.30;;;0.80;98.00;;;;;;5139611;27;20450;-45
2021/01/09 02:17:10;;;;;;;15.97;11.50;;;0.90;98.10;;;;;;5139780;27;20568;-45
2021/01/09 02:19:41;;;;;;;15.50;11.80;;;0.80;97.90;;;;;;5139625;27;20726;-46
2021/01/09 02:22:14;;;;;;;15.37;12.40;;;0.90;97.90;;;;;;5139528;27;20694;-45
2021/01/09 02:24:47;;;;;;;12.90;11.10;;;0.90;97.70;;;;;;5139763;27;20507;-46
2021/01/09 02:27:13;;;;;;;14.80;11.93;;;0.90;97.80;;;;;;5139459;27;20885;-45
2021/01/09 02:29:45;;;;;;;15.53;10.70;;;0.80;98.00;;;;;;5139370;27;20421;-46
2021/01/09 02:32:11;;;;;;;14.93;10.80;;;0.80;98.00;;;;;;5140205;27;20473;-45
2021/01/09 02:34:47;;;;;;;14.33;11.27;;;0.80;97.70;;;;;;5138794;27;20427;-45
2021/01/09 02:37:13;;;;;;;14.43;11.30;;;0.80;97.80;;;;;;5138927;27;20464;-45
2021/01/09 02:39:39;;;;;;;14.83;12.10;;;0.80;97.80;;;;;;5137877;27;20809;-45
2021/01/09 02:42:06;;;;;;;15.60;10.67;;;0.80;97.70;;;;;;5139358;27;20894;-45
2021/01/09 02:44:32;;;;;;;14.10;11.77;;;0.80;97.70;;;;;;5139673;27;20477;-44
2021/01/09 02:46:59;;;;;;;14.77;11.20;;;0.90;97.80;;;;;;5138485;27;20412;-45
2021/01/09 02:49:24;;;;;;;12.93;11.47;;;0.90;98.10;;;;;;5138860;27;20703;-46
2021/01/09 02:51:50;;;;;;;15.00;11.20;;;0.90;97.80;;;;;;5138653;27;20440;-46
2021/01/09 02:54:16;;;;;;;13.97;11.20;;;0.90;97.70;;;;;;5139215;27;20183;-45
2021/01/09 02:56:41;;;;;;;12.33;10.53;;;0.90;97.60;;;;;;5138283;27;20225;-46
2021/01/09 02:59:07;;;;;;;14.27;10.80;;;0.90;97.70;;;;;;5138664;27;20281;-45
2021/01/09 03:01:33;;;;;;;15.50;11.57;;;0.90;97.70;;;;;;5139553;27;20277;-45
2021/01/09 03:03:59;;;;;;;15.70;12.87;;;0.90;97.70;;;;;;5138456;27;20183;-45
2021/01/09 03:06:25;;;;;;;14.20;12.13;;;0.90;97.90;;;;;;5138847;27;20203;-46
2021/01/09 03:08:51;;;;;;;14.90;12.30;;;0.80;97.50;;;;;;5138799;27;20252;-46
2021/01/09 03:11:17;;;;;;;15.43;11.73;;;0.70;98.10;;;;;;5138140;27;20436;-46
2021/01/09 03:13:43;;;;;;;17.50;12.60;;;0.80;98.00;;;;;;5138049;27;20560;-45
2021/01/09 03:16:09;;;;;;;15.10;12.10;;;0.70;97.90;;;;;;5138178;27;20553;-45
2021/01/09 03:18:35;;;;;;;16.27;12.90;;;0.70;98.10;;;;;;5137971;27;20413;-45
2021/01/09 03:21:01;;;;;;;14.53;11.37;;;0.60;98.10;;;;;;5138304;27;20183;-45
2021/01/09 03:23:27;;;;;;;17.47;13.40;;;0.60;98.40;;;;;;5138201;27;20458;-46
2021/01/09 03:25:52;;;;;;;15.83;11.40;;;0.60;98.50;;;;;;5137861;27;20558;-45
2021/01/09 03:28:18;;;;;;;16.27;12.47;;;0.70;98.60;;;;;;5138070;27;20179;-45
2021/01/09 03:30:44;;;;;;;12.90;10.23;;;0.70;98.50;;;;;;5138039;27;20619;-45
2021/01/09 03:33:10;;;;;;;16.07;12.30;;;0.70;98.40;;;;;;5138547;27;20409;-46
2021/01/09 03:35:35;;;;;;;17.20;13.37;;;0.70;98.20;;;;;;5138045;27;20194;-46
2021/01/09 03:38:01;;;;;;;15.47;12.03;;;0.80;98.20;;;;;;5138570;27;20198;-45
2021/01/09 03:40:27;;;;;;;15.70;12.57;;;0.80;98.20;;;;;;5137334;27;20590;-45
2021/01/09 03:42:54;;;;;;;19.40;13.23;;;0.80;98.30;;;;;;5138664;27;20266;-45
2021/01/09 03:45:19;;;;;;;13.63;11.90;;;0.90;98.20;;;;;;5138246;27;20420;-45
2021/01/09 03:47:45;;;;;;;15.67;11.93;;;0.90;98.10;;;;;;5137845;27;20508;-45
2021/01/09 03:50:11;;;;;;;15.73;13.27;;;0.90;98.10;;;;;;5137352;27;20472;-46
2021/01/09 03:52:37;;;;;;;16.63;12.83;;;0.90;98.00;;;;;;5138286;27;20244;-46
2021/01/09 03:55:03;;;;;;;14.17;11.60;;;0.90;98.00;;;;;;5138471;27;20460;-45
2021/01/09 03:57:29;;;;;;;16.60;11.93;;;0.90;98.10;;;;;;5138813;27;20223;-45
2021/01/09 03:59:54;;;;;;;15.40;11.97;;;0.90;98.10;;;;;;5138505;27;20499;-46
2021/01/09 04:02:20;;;;;;;16.13;13.10;;;1.00;98.20;;;;;;5138572;27;20179;-45
2021/01/09 04:04:46;;;;;;;16.33;12.47;;;1.00;98.20;;;;;;5138758;27;20171;-45
2021/01/09 04:07:11;;;;;;;20.60;13.47;;;1.00;98.20;;;;;;5138248;28;20196;-45
2021/01/09 04:09:37;;;;;;;16.10;12.87;;;1.00;98.20;;;;;;5138373;28;20549;-45
2021/01/09 04:12:03;;;;;;;15.47;12.30;;;1.00;98.20;;;;;;5138682;28;20179;-45
2021/01/09 04:14:29;;;;;;;16.90;13.57;;;1.00;98.10;;;;;;5138458;28;20510;-45
2021/01/09 04:16:54;;;;;;;16.50;12.17;;;1.00;98.10;;;;;;5138447;28;20476;-45
2021/01/09 04:19:20;;;;;;;15.87;12.90;;;1.00;98.10;;;;;;5138341;28;20247;-45
2021/01/09 04:21:47;;;;;;;18.90;13.43;;;1.00;98.20;;;;;;5138273;28;20198;-45
2021/01/09 04:24:15;;;;;;;16.83;12.93;;;1.00;98.10;;;;;;5138239;27;20178;-45
2021/01/09 04:26:41;;;;;;;16.73;13.30;;;0.90;98.00;;;;;;5138466;27;20436;-44
2021/01/09 04:29:06;;;;;;;18.70;13.23;;;0.90;98.20;;;;;;5141015;27;20404;-45
2021/01/09 04:31:32;;;;;;;18.33;12.97;;;0.90;98.40;;;;;;5142476;27;20204;-45
2021/01/09 04:33:58;;;;;;;19.47;14.67;;;0.90;98.20;;;;;;5142046;27;20187;-45
2021/01/09 04:36:24;;;;;;;17.17;13.43;;;0.80;98.10;;;;;;5142400;27;20881;-45
2021/01/09 04:38:51;;;;;;;19.53;14.00;;;0.80;98.40;;;;;;5141998;27;20415;-46
2021/01/09 04:41:20;;;;;;;14.27;12.03;;;0.70;98.60;;;;;;5142123;27;20457;-45
2021/01/09 04:43:47;;;;;;;18.27;14.03;;;0.70;98.70;;;;;;5142221;27;20876;-45
2021/01/09 04:46:14;;;;;;;15.40;12.73;;;0.70;98.80;;;;;;5141982;27;20504;-45
2021/01/09 04:48:39;;;;;;;15.73;12.60;;;0.60;98.80;;;;;;5140830;27;20416;-45
2021/01/09 04:51:05;;;;;;;16.00;12.30;;;0.60;98.90;;;;;;5141919;27;20431;-45
2021/01/09 04:53:31;;;;;;;21.10;14.47;;;0.60;99.10;;;;;;5140954;27;20416;-45
2021/01/09 04:55:57;;;;;;;15.83;11.90;;;0.60;99.10;;;;;;5140931;27;20245;-45
2021/01/09 04:58:23;;;;;;;16.93;13.80;;;0.50;99.10;;;;;;5141150;27;20409;-45
2021/01/09 05:00:54;;;;;;;16.80;13.33;;;0.50;99.30;;;;;;5140686;27;20702;-45
2021/01/09 05:03:23;;;;;;;16.13;12.60;;;0.60;99.50;;;;;;5141867;27;20428;-45
2021/01/09 05:05:49;;;;;;;18.47;14.43;;;0.60;99.50;;;;;;5141982;27;20775;-46
2021/01/09 05:08:15;;;;;;;18.63;14.13;;;0.60;99.50;;;;;;5141256;27;20417;-46
2021/01/09 05:10:41;;;;;;;16.40;13.10;;;0.70;99.40;;;;;;5141868;27;20425;-45
2021/01/09 05:13:06;;;;;;;22.00;15.23;;;0.60;99.30;;;;;;5141498;27;20179;-45
2021/01/09 05:15:37;;;;;;;17.40;13.23;;;0.70;99.40;;;;;;5140863;27;20219;-45
2021/01/09 05:18:05;;;;;;;15.10;12.40;;;0.70;99.30;;;;;;5141621;27;20179;-45
2021/01/09 05:20:30;;;;;;;20.17;14.67;;;0.80;99.10;;;;;;5141233;27;20436;-45
2021/01/09 05:22:57;;;;;;;19.17;14.80;;;0.70;99.10;;;;;;5140500;27;20401;-45
2021/01/09 05:25:27;;;;;;;20.00;14.40;;;0.70;99.10;;;;;;5139982;27;20428;-45
2021/01/09 05:27:54;;;;;;;18.40;14.50;;;0.70;99.20;;;;;;5140082;27;20478;-45
2021/01/09 05:30:21;;;;;;;16.60;13.97;;;0.80;99.30;;;;;;5140347;27;20435;-45
2021/01/09 05:32:46;;;;;;;17.10;14.60;;;0.70;99.30;;;;;;5140317;27;20411;-45
2021/01/09 05:35:17;;;;;;;16.47;14.37;;;0.80;99.30;;;;;;5140402;27;20428;-45
2021/01/09 05:37:47;;;;;;;19.73;14.40;;;0.80;99.30;;;;;;5140884;27;20289;-45
2021/01/09 05:40:13;;;;;;;17.63;14.00;;;0.80;99.30;;;;;;5140539;27;20818;-45
2021/01/09 05:42:39;;;;;;;19.50;14.30;;;0.90;99.30;;;;;;5140360;27;20405;-45
2021/01/09 05:45:06;;;;;;;18.87;14.20;;;0.90;99.20;;;;;;5140848;27;21216;-45
2021/01/09 05:47:32;;;;;;;18.50;13.27;;;1.00;99.30;;;;;;5140758;27;20174;-45
2021/01/09 05:49:59;;;;;;;17.73;14.30;;;1.00;99.30;;;;;;5140704;27;20856;-45
2021/01/09 05:52:26;;;;;;;17.50;14.57;;;1.00;99.20;;;;;;5140694;27;20183;-45
2021/01/09 05:54:58;;;;;;;19.27;15.53;;;1.00;99.20;;;;;;5141018;27;20453;-45
2021/01/09 05:57:29;;;;;;;18.07;15.00;;;1.10;99.20;;;;;;5140983;27;20514;-45
2021/01/09 06:00:04;;;;;;;20.53;15.37;;;1.10;99.20;;;;;;5139676;27;20439;-44
2021/01/09 06:02:40;;;;;;;24.00;17.10;;;1.20;99.20;;;;;;5141202;27;20412;-45
2021/01/09 06:05:06;;;;;;;22.40;16.83;;;1.10;99.10;;;;;;5140751;27;20429;-45
2021/01/09 06:07:34;;;;;;;24.67;18.40;;;1.10;99.20;;;;;;5140612;27;20495;-45
2021/01/09 06:10:03;;;;;;;25.83;17.70;;;1.20;99.30;;;;;;5139381;27;20432;-45
2021/01/09 06:12:35;;;;;;;24.43;18.60;;;1.20;99.40;;;;;;5140689;27;20405;-45
2021/01/09 06:15:05;;;;;;;32.17;20.13;;;1.20;99.30;;;;;;5140297;27;20464;-45
2021/01/09 06:17:33;;;;;;;27.47;18.60;;;1.20;99.30;;;;;;5140036;27;20464;-45
2021/01/09 06:19:59;;;;;;;24.80;17.97;;;1.10;99.20;;;;;;5138850;27;20573;-45
2021/01/09 06:22:26;;;;;;;21.43;16.97;;;1.10;99.20;;;;;;5140578;27;20417;-46
2021/01/09 06:24:52;;;;;;;20.13;16.10;;;1.00;99.20;;;;;;5140267;27;20420;-45
2021/01/09 06:27:24;;;;;;;27.20;20.33;;;1.10;99.30;;;;;;5139162;27;20896;-46
2021/01/09 06:29:52;;;;;;;24.77;18.00;;;1.00;99.20;;;;;;5138800;27;20458;-46
2021/01/09 06:32:20;;;;;;;28.17;19.60;;;0.90;99.20;;;;;;5138021;27;20456;-45
2021/01/09 06:34:49;;;;;;;24.80;20.73;;;0.90;99.50;;;;;;5139828;27;20431;-46
2021/01/09 06:37:21;;;;;;;29.60;20.17;;;1.00;99.80;;;;;;5140253;27;20541;-46
2021/01/09 06:39:46;;;;;;;27.87;20.30;;;1.00;99.90;;;;;;5139806;27;20397;-46
2021/01/09 06:42:12;;;;;;;28.70;20.23;;;1.10;99.90;;;;;;5139057;27;20810;-44
2021/01/09 06:44:39;;;;;;;27.70;20.67;;;1.10;99.90;;;;;;5139280;27;20198;-46
2021/01/09 06:47:04;;;;;;;30.43;22.57;;;1.20;99.90;;;;;;5140522;27;20413;-46
2021/01/09 06:49:30;;;;;;;33.77;22.93;;;1.20;99.90;;;;;;5139308;27;20470;-46
2021/01/09 06:52:03;;;;;;;28.60;21.40;;;1.30;99.90;;;;;;5139027;27;20187;-46
2021/01/09 06:54:37;;;;;;;29.33;21.23;;;1.30;99.90;;;;;;5139760;27;20247;-46
2021/01/09 06:57:06;;;;;;;26.53;20.30;;;1.30;99.90;;;;;;5140080;27;20536;-45
2021/01/09 06:59:32;;;;;;;31.40;21.10;;;1.30;99.90;;;;;;5139785;27;20466;-45
2021/01/09 07:02:14;;;;;;;29.80;23.63;;;1.30;99.90;;;;;;5138715;27;21018;-45
2021/01/09 07:05:00;;;;;;;32.03;22.40;;;1.30;99.90;;;;;;5139731;27;20432;-45
2021/01/09 07:07:28;;;;;;;32.60;21.60;;;1.30;99.90;;;;;;5139940;27;20748;-45
2021/01/09 07:10:14;;;;;;;25.53;19.30;;;1.30;99.90;;;;;;5139450;27;20436;-45
2021/01/09 07:12:45;;;;;;;30.67;21.67;;;1.40;99.90;;;;;;5138505;27;20511;-45
2021/01/09 07:15:12;;;;;;;29.37;21.03;;;1.30;99.90;;;;;;5138623;27;20479;-45
2021/01/09 07:17:40;;;;;;;33.00;21.90;;;1.40;99.90;;;;;;5139590;27;20460;-45
2021/01/09 07:20:08;;;;;;;34.73;22.10;;;1.40;99.90;;;;;;5139649;27;20436;-45
2021/01/09 07:22:42;;;;;;;30.97;20.20;;;1.40;99.90;;;;;;5139092;27;20426;-45
2021/01/09 07:25:09;;;;;;;32.87;21.50;;;1.40;99.90;;;;;;5138776;27;20425;-45
2021/01/09 07:27:45;;;;;;;32.03;22.93;;;1.40;99.90;;;;;;5139083;27;20416;-46
2021/01/09 07:30:18;;;;;;;30.10;20.20;;;1.40;99.90;;;;;;5133454;27;20506;-46
2021/01/09 07:32:48;;;;;;;30.80;20.57;;;1.40;99.90;;;;;;5136206;27;20808;-46
2021/01/09 07:35:29;;;;;;;34.00;21.03;;;1.40;99.90;;;;;;5123126;27;20437;-46
2021/01/09 07:37:58;;;;;;;31.60;20.80;;;1.40;99.90;;;;;;5132862;27;20475;-46
2021/01/09 07:40:24;;;;;;;34.33;22.87;;;1.40;99.90;;;;;;5138862;27;20428;-46
2021/01/09 07:42:50;;;;;;;28.27;19.90;;;1.40;99.90;;;;;;5139044;27;20413;-45
2021/01/09 07:45:21;;;;;;;33.73;22.43;;;1.30;99.90;;;;;;5138843;27;20440;-46
2021/01/09 07:47:48;;;;;;;30.27;20.60;;;1.30;99.90;;;;;;5128266;27;20519;-46
2021/01/09 07:50:17;;;;;;;36.47;23.20;;;1.30;99.90;;;;;;5121238;27;20863;-45
2021/01/09 07:52:43;;;;;;;31.43;22.50;;;1.30;99.90;;;;;;5133794;27;20437;-47
2021/01/09 07:55:17;;;;;;;31.33;20.93;;;1.20;99.90;;;;;;5122193;27;20433;-46
2021/01/09 07:57:43;;;;;;;33.03;21.67;;;1.30;99.90;;;;;;5127174;27;20899;-45
2021/01/09 08:00:13;;;;;;;30.57;20.63;;;1.20;99.90;;;;;;5118676;28;20425;-46
2021/01/09 08:02:40;;;;;;;30.90;21.60;;;1.20;99.90;;;;;;5134886;27;20427;-47
2021/01/09 08:05:07;;;;;;;32.00;20.97;;;1.30;99.90;;;;;;5138533;27;20433;-46
2021/01/09 08:07:35;;;;;;;32.27;19.83;;;1.30;99.90;;;;;;5137869;27;20404;-46
2021/01/09 08:10:23;;;;;;;31.23;20.20;;;1.30;99.90;;;;;;5138236;27;20532;-46
2021/01/09 08:12:57;;;;;;;37.20;22.10;;;1.30;99.90;;;;;;5118003;28;20405;-47
2021/01/09 08:15:25;;;;;;;35.63;22.67;;;1.30;99.90;;;;;;5119650;28;20649;-47
2021/01/09 08:17:51;;;;;;;30.30;19.87;;;1.30;99.90;;;;;;5121358;28;20891;-46
2021/01/09 08:20:18;;;;;;;30.40;19.70;;;1.40;99.90;;;;;;5119384;28;20516;-46
2021/01/09 08:22:53;;;;;;;29.93;20.87;;;1.40;99.90;;;;;;5138111;27;20423;-46
2021/01/09 08:25:19;;;;;;;30.90;19.73;;;1.40;99.90;;;;;;5137878;27;20488;-47
2021/01/09 08:27:58;;;;;;;33.07;22.00;;;1.40;99.90;;;;;;5136682;27;20419;-47
2021/01/09 08:30:27;;;;;;;33.00;22.10;;;1.50;99.90;;;;;;5136271;28;20443;-45
2021/01/09 08:33:08;;;;;;;33.57;21.00;;;1.50;99.90;;;;;;5137225;27;20506;-46
2021/01/09 08:35:35;;;;;;;31.70;19.70;;;1.50;99.90;;;;;;5134677;27;20709;-46
2021/01/09 08:38:02;;;;;;;31.67;20.37;;;1.50;99.90;;;;;;5135788;27;20573;-46
2021/01/09 08:40:27;;;;;;;34.37;21.50;;;1.50;99.70;;;;;;5135829;28;20703;-44
2021/01/09 08:42:54;;;;;;;28.90;20.20;;;1.60;99.80;;;;;;5137774;28;20477;-46
2021/01/09 08:45:38;;;;;;;30.37;20.50;;;1.50;99.70;;;;;;5136137;28;20186;-46
2021/01/09 08:48:04;;;;;;;37.30;22.40;;;1.50;99.80;;;;;;5136006;27;20517;-46
2021/01/09 08:50:33;;;;;;;33.73;21.53;;;1.50;99.80;;;;;;5135259;28;20776;-46
2021/01/09 08:52:59;;;;;;;28.33;19.33;;;1.40;99.90;;;;;;5135228;28;20494;-46
2021/01/09 08:55:26;;;;;;;30.23;20.77;;;1.40;99.90;;;;;;5135770;28;20660;-46
2021/01/09 08:57:52;;;;;;;29.90;20.00;;;1.40;99.90;;;;;;5135829;28;20463;-46
2021/01/09 09:00:18;;;;;;;30.60;19.37;;;1.40;99.90;;;;;;5135741;28;20421;-46
2021/01/09 09:02:44;;;;;;;31.60;19.13;;;1.50;99.90;;;;;;5137743;27;20417;-46
2021/01/09 09:05:10;;;;;;;29.53;19.43;;;1.50;99.90;;;;;;5137336;28;20456;-46
2021/01/09 09:07:40;;;;;;;32.73;20.97;;;1.50;99.90;;;;;;5137858;27;20274;-46
2021/01/09 09:10:08;;;;;;;30.30;18.50;;;1.50;99.70;;;;;;5137636;27;20764;-46
2021/01/09 09:12:34;;;;;;;28.80;20.30;;;1.50;99.70;;;;;;5138194;27;20810;-46
2021/01/09 09:15:04;;;;;;;27.20;19.10;;;1.60;99.80;;;;;;5139802;27;20547;-46
2021/01/09 09:17:30;;;;;;;27.60;18.07;;;1.60;99.90;;;;;;5119524;28;20501;-46
2021/01/09 09:19:59;;;;;;;24.83;17.77;;;1.60;99.60;;;;;;5119107;28;20426;-46
2021/01/09 09:22:29;;;;;;;23.53;15.57;;;1.60;99.50;;;;;;5139682;27;20671;-46
2021/01/09 09:24:55;;;;;;;24.43;17.43;;;1.70;99.60;;;;;;5140140;27;20437;-46
2021/01/09 09:27:26;;;;;;;22.90;16.20;;;1.70;99.50;;;;;;5140073;27;20416;-46
2021/01/09 09:30:10;;;;;;;25.10;18.30;;;1.80;99.60;;;;;;5139711;27;20428;-45
2021/01/09 09:32:37;;;;;;;23.73;17.53;;;1.90;99.50;;;;;;5120892;28;20865;-46
2021/01/09 09:35:41;;;;;;;24.60;17.47;;;2.00;99.40;;;;;;5120597;28;20494;-46
2021/01/09 09:38:10;;;;;;;22.20;16.80;;;2.10;99.10;;;;;;5096882;28;20437;-45
2021/01/09 09:40:37;;;;;;;24.53;15.77;;;2.10;98.40;;;;;;5102198;28;20888;-46
2021/01/09 09:43:16;;;;;;;21.67;15.60;;;2.20;98.30;;;;;;5119098;28;20456;-46
2021/01/09 09:46:14;;;;;;;21.83;15.43;;;2.20;97.90;;;;;;5123875;27;20435;-46
2021/01/09 09:48:44;;;;;;;21.37;15.43;;;2.20;97.90;;;;;;5086941;27;20504;-46
2021/01/09 09:51:11;;;;;;;22.77;16.57;;;2.30;97.70;;;;;;5138263;27;20511;-46
2021/01/09 09:53:39;;;;;;;24.67;18.23;;;2.30;97.60;;;;;;5137502;27;20405;-46
2021/01/09 09:56:18;;;;;;;20.90;16.27;;;2.30;97.40;;;;;;5137808;27;20573;-46
2021/01/09 09:58:44;;;;;;;23.70;17.80;;;2.40;97.40;;;;;;5138706;27;20481;-46
2021/01/09 10:01:21;;;;;;;24.10;16.60;;;2.50;97.70;;;;;;5139234;27;20432;-45
2021/01/09 10:03:51;;;;;;;23.80;17.77;;;2.50;97.70;;;;;;5138055;27;20421;-46
2021/01/09 10:06:17;;;;;;;22.03;16.30;;;2.60;97.40;;;;;;5118566;28;20433;-45
2021/01/09 10:08:43;;;;;;;29.87;19.20;;;2.70;97.10;;;;;;5121050;27;20486;-46
2021/01/09 10:11:09;;;;;;;22.23;17.10;;;2.90;97.00;;;;;;5140068;27;20523;-46
2021/01/09 10:13:36;;;;;;;23.80;17.23;;;3.00;96.40;;;;;;5140151;27;20421;-46
2021/01/09 10:16:02;;;;;;;20.50;16.40;;;3.00;95.80;;;;;;5140068;27;20603;-46
2021/01/09 10:18:30;;;;;;;22.20;16.07;;;3.10;95.70;;;;;;5140144;27;20401;-46
2021/01/09 10:20:57;;;;;;;23.27;16.77;;;3.10;95.50;;;;;;5139469;27;20552;-46
2021/01/09 10:23:30;;;;;;;22.60;16.50;;;3.10;95.40;;;;;;5138973;27;20405;-46
2021/01/09 10:25:56;;;;;;;19.67;14.60;;;3.10;95.60;;;;;;5138630;27;20433;-46
2021/01/09 10:28:25;;;;;;;21.43;15.23;;;3.20;95.30;;;;;;5140351;27;20505;-46
2021/01/09 10:30:50;;;;;;;19.33;14.83;;;3.30;95.10;;;;;;5140082;27;20441;-46
2021/01/09 10:33:16;;;;;;;21.00;15.13;;;3.40;94.50;;;;;;5138608;27;20405;-46
2021/01/09 10:35:47;;;;;;;21.90;16.70;;;3.50;94.40;;;;;;5139204;27;20191;-46
2021/01/09 10:38:13;;;;;;;20.43;15.90;;;3.50;94.20;;;;;;5140276;27;20952;-45
2021/01/09 10:40:38;;;;;;;20.63;14.40;;;3.50;93.80;;;;;;5139057;27;20420;-46
2021/01/09 10:43:04;;;;;;;20.47;15.57;;;3.40;94.10;;;;;;5138635;27;20420;-45
2021/01/09 10:45:30;;;;;;;23.70;15.13;;;3.50;94.10;;;;;;5137423;27;20214;-46
2021/01/09 10:47:55;;;;;;;19.57;15.80;;;3.30;94.10;;;;;;5138129;27;20453;-46
2021/01/09 10:50:21;;;;;;;19.80;14.60;;;3.40;94.20;;;;;;5137174;27;20581;-46
2021/01/09 10:52:47;;;;;;;21.17;15.20;;;3.50;94.40;;;;;;5137925;27;20591;-46
2021/01/09 10:55:12;;;;;;;18.23;14.43;;;3.70;94.10;;;;;;5137978;27;20202;-45
2021/01/09 10:57:38;;;;;;;18.73;13.23;;;3.90;93.30;;;;;;5138964;27;20637;-46
2021/01/09 11:00:07;;;;;;;20.37;14.53;;;4.10;93.20;;;;;;5138462;27;20240;-46
2021/01/09 11:02:33;;;;;;;17.13;13.13;;;4.30;92.70;;;;;;5117951;27;20508;-46
2021/01/09 11:04:58;;;;;;;18.53;13.57;;;4.40;92.50;;;;;;5126044;27;20433;-46
2021/01/09 11:07:24;;;;;;;17.17;14.43;;;4.60;92.00;;;;;;5137822;27;20183;-46
2021/01/09 11:09:50;;;;;;;13.63;11.27;;;4.80;91.60;;;;;;5136499;27;20187;-46
2021/01/09 11:12:15;;;;;;;20.90;13.63;;;5.00;91.00;;;;;;5135838;27;20198;-46
2021/01/09 11:14:41;;;;;;;13.27;10.97;;;5.10;90.80;;;;;;5134118;27;20326;-47
2021/01/09 11:17:07;;;;;;;14.53;12.60;;;5.00;90.00;;;;;;5135287;27;20460;-45
2021/01/09 11:19:33;;;;;;;20.53;13.43;;;5.10;89.90;;;;;;5137006;27;20175;-45
2021/01/09 11:22:01;;;;;;;16.40;13.00;;;5.10;89.40;;;;;;5137208;27;20182;-46
2021/01/09 11:24:33;;;;;;;15.93;11.90;;;4.90;89.40;;;;;;5136624;27;20755;-46
2021/01/09 11:27:03;;;;;;;16.97;13.00;;;5.00;88.90;;;;;;5138046;27;20456;-47
2021/01/09 11:29:29;;;;;;;15.00;12.00;;;5.10;89.00;;;;;;5137554;27;20424;-46
2021/01/09 11:31:56;;;;;;;15.53;11.70;;;5.20;88.40;;;;;;5135682;27;20428;-46
2021/01/09 11:34:22;;;;;;;15.73;12.67;;;5.60;87.50;;;;;;5136852;27;20218;-46
2021/01/09 11:36:48;;;;;;;11.60;10.37;;;6.00;86.40;;;;;;5135549;27;20609;-46
2021/01/09 11:39:14;;;;;;;12.00;10.03;;;6.50;84.70;;;;;;5136697;27;20258;-46
2021/01/09 11:41:39;;;;;;;12.00;10.07;;;6.90;82.10;;;;;;5136445;27;20187;-46
2021/01/09 11:44:05;;;;;;;11.70;10.50;;;7.30;79.10;;;;;;5136906;27;20826;-47
2021/01/09 11:46:31;;;;;;;14.50;12.37;;;7.80;78.10;;;;;;5137228;27;20200;-45
2021/01/09 11:48:57;;;;;;;15.67;11.80;;;8.70;77.50;;;;;;5119825;27;20183;-44
2021/01/09 11:51:25;;;;;;;13.40;12.00;;;9.90;74.70;;;;;;5137750;27;20451;-44
2021/01/09 11:53:52;;;;;;;12.43;11.13;;;11.00;68.00;;;;;;5132378;27;20457;-44
2021/01/09 11:56:22;;;;;;;12.97;11.60;;;11.60;61.20;;;;;;5129533;27;20480;-44
2021/01/09 11:58:48;;;;;;;14.07;12.30;;;11.10;58.20;;;;;;5119312;28;20421;-44
2021/01/09 12:01:14;;;;;;;13.80;12.27;;;10.30;58.50;;;;;;5137247;27;20433;-44
2021/01/09 12:03:40;;;;;;;14.47;12.93;;;9.70;60.40;;;;;;5135978;27;20450;-46
2021/01/09 12:06:06;;;;;;;14.93;12.10;;;9.20;62.70;;;;;;5135630;27;20439;-45
2021/01/09 12:08:32;;;;;;;13.03;10.37;;;9.10;65.10;;;;;;5136643;27;20936;-45
2021/01/09 12:10:58;;;;;;;13.27;11.87;;;8.90;64.70;;;;;;5137196;27;20417;-45
2021/01/09 12:13:24;;;;;;;11.60;10.17;;;8.20;64.40;;;;;;5138035;27;20584;-45
2021/01/09 12:15:50;;;;;;;11.80;10.60;;;7.90;65.60;;;;;;5137477;27;20223;-44
2021/01/09 12:18:24;;;;;;;14.80;12.10;;;7.70;67.20;;;;;;5137626;28;20183;-46
2021/01/09 12:20:52;;;;;;;13.70;11.23;;;7.60;67.80;;;;;;5116626;28;20452;-45
2021/01/09 12:23:18;;;;;;;13.20;10.93;;;8.20;67.90;;;;;;5115917;28;20890;-45
2021/01/09 12:25:44;;;;;;;13.93;11.20;;;8.90;66.70;;;;;;5120338;28;20533;-46
2021/01/09 12:28:10;;;;;;;12.60;11.37;;;9.80;63.40;;;;;;5136868;28;20182;-45
2021/01/09 12:30:36;;;;;;;15.53;13.10;;;10.90;60.40;;;;;;5129115;28;20188;-46
2021/01/09 12:33:01;;;;;;;13.20;10.63;;;11.80;56.60;;;;;;5117426;28;20200;-46
2021/01/09 12:35:27;;;;;;;8.77;7.27;;;11.40;62.20;;;;;;5119996;28;20490;-47
2021/01/09 12:37:54;;;;;;;12.77;11.40;;;11.60;74.40;;;;;;5136995;27;20227;-46
2021/01/09 12:40:21;;;;;;;13.87;12.37;;;11.60;72.10;;;;;;5137916;27;20428;-45